createdAt,value
2023-03-27T00:00:16.715Z,0.30
2023-03-27T00:02:46.936Z,0.20
2023-03-27T00:05:20.351Z,0.30
2023-03-27T00:07:49.480Z,0.30
2023-03-27T00:10:17.764Z,0.30
2023-03-27T00:12:46.055Z,0.55
2023-03-27T00:15:17.404Z,0.50
2023-03-27T00:17:50.203Z,0.30
2023-03-27T00:20:22.879Z,0.30
2023-03-27T00:22:55.559Z,0.30
2023-03-27T00:25:26.493Z,0.20
2023-03-27T00:27:56.388Z,0.22
2023-03-27T00:30:24.544Z,0.22
2023-03-27T00:32:54.332Z,0.20
2023-03-27T00:35:24.351Z,0.30
2023-03-27T00:37:52.507Z,0.30
2023-03-27T00:40:21.094Z,0.22
2023-03-27T00:42:51.048Z,0.20
2023-03-27T00:45:21.115Z,0.20
2023-03-27T00:47:54.097Z,0.30
2023-03-27T00:50:26.966Z,0.30
2023-03-27T00:53:01.701Z,0.30
2023-03-27T00:55:32.841Z,0.30
2023-03-27T00:58:06.413Z,0.55
2023-03-27T01:00:34.972Z,0.50
2023-03-27T01:03:07.008Z,0.38
2023-03-27T01:05:37.935Z,0.43
2023-03-27T01:08:07.278Z,0.50
2023-03-27T01:10:48.344Z,0.52
2023-03-27T01:13:41.230Z,0.88
2023-03-27T01:16:18.659Z,0.60
2023-03-27T01:18:59.261Z,1.23
2023-03-27T01:22:01.357Z,1.17
2023-03-27T01:24:50.664Z,0.70
2023-03-27T01:27:25.831Z,1.35
2023-03-27T01:30:15.377Z,1.02
2023-03-27T01:33:14.002Z,0.82
2023-03-27T01:36:16.938Z,0.88
2023-03-27T01:39:24.045Z,1.25
2023-03-27T01:42:01.738Z,0.68
2023-03-27T01:44:44.741Z,0.52
2023-03-27T01:47:31.403Z,0.85
2023-03-27T01:50:09.443Z,0.80
2023-03-27T01:52:40.925Z,0.52
2023-03-27T01:55:13.212Z,0.45
2023-03-27T01:57:50.376Z,0.47
2023-03-27T02:00:22.991Z,0.35
2023-03-27T02:02:55.256Z,0.50
2023-03-27T02:05:30.619Z,0.38
2023-03-27T02:08:04.757Z,0.40
2023-03-27T02:10:40.548Z,0.40
2023-03-27T02:13:19.799Z,0.40
2023-03-27T02:15:49.690Z,0.30
2023-03-27T02:18:25.644Z,0.30
2023-03-27T02:20:53.961Z,0.25
2023-03-27T02:23:23.470Z,0.50
2023-03-27T02:25:54.328Z,0.40
2023-03-27T02:28:37.746Z,0.57
2023-03-27T02:31:33.061Z,0.40
2023-03-27T02:34:35.300Z,1.10
2023-03-27T02:37:16.170Z,0.52
2023-03-27T02:40:13.656Z,0.50
2023-03-27T02:42:51.700Z,0.68
2023-03-27T02:45:29.497Z,0.45
2023-03-27T02:48:02.295Z,0.63
2023-03-27T02:50:37.220Z,0.50
2023-03-27T02:53:13.556Z,0.90
2023-03-27T02:55:46.094Z,0.70
2023-03-27T02:58:18.452Z,0.70
2023-03-27T03:01:09.346Z,0.70
2023-03-27T03:03:53.756Z,0.60
2023-03-27T03:06:42.265Z,1.48
2023-03-27T03:09:11.098Z,0.82
2023-03-27T03:11:46.200Z,1.20
2023-03-27T03:14:14.608Z,1.25
2023-03-27T03:16:44.088Z,1.70
2023-03-27T03:19:12.768Z,1.30
2023-03-27T03:21:40.943Z,1.98
2023-03-27T03:24:12.998Z,2.08
2023-03-27T03:26:41.182Z,1.13
2023-03-27T03:29:10.446Z,1.02
2023-03-27T03:31:44.952Z,1.80
2023-03-27T03:34:14.537Z,0.90
2023-03-27T03:36:42.998Z,1.10
2023-03-27T03:39:12.387Z,1.08
2023-03-27T03:41:40.486Z,1.23
2023-03-27T03:44:09.966Z,1.50
2023-03-27T03:46:39.198Z,1.15
2023-03-27T03:49:09.185Z,1.40
2023-03-27T03:51:37.947Z,1.40
2023-03-27T03:54:07.150Z,1.83
2023-03-27T03:56:37.200Z,1.45
2023-03-27T03:59:05.380Z,1.45
2023-03-27T04:01:34.461Z,1.90
2023-03-27T04:04:05.012Z,2.13
2023-03-27T04:06:58.218Z,2.13
2023-03-27T04:09:30.779Z,1.35
2023-03-27T04:12:07.985Z,1.73
2023-03-27T04:14:55.965Z,3.58
2023-03-27T04:18:00.998Z,2.20
2023-03-27T04:20:29.780Z,1.85
2023-03-27T04:23:02.520Z,1.70
2023-03-27T04:25:32.183Z,2.40
2023-03-27T04:28:02.237Z,1.33
2023-03-27T04:30:44.132Z,1.45
2023-03-27T04:33:18.563Z,2.13
2023-03-27T04:36:06.320Z,1.58
2023-03-27T04:38:55.709Z,2.78
2023-03-27T04:41:24.039Z,2.15
2023-03-27T04:43:52.027Z,2.00
2023-03-27T04:46:20.111Z,1.80
2023-03-27T04:48:54.275Z,1.85
2023-03-27T04:51:36.593Z,2.65
2023-03-27T04:54:07.455Z,2.83
2023-03-27T04:56:42.425Z,2.05
2023-03-27T04:59:10.518Z,2.15
2023-03-27T05:01:38.997Z,1.90
2023-03-27T05:04:18.082Z,3.10
2023-03-27T05:07:05.732Z,1.88
2023-03-27T05:09:35.121Z,2.20
2023-03-27T05:12:03.352Z,2.10
2023-03-27T05:14:38.292Z,2.47
2023-03-27T05:17:10.966Z,2.55
2023-03-27T05:19:41.526Z,2.40
2023-03-27T05:22:09.973Z,2.13
2023-03-27T05:24:49.431Z,2.45
2023-03-27T05:27:17.679Z,2.80
2023-03-27T05:29:49.183Z,3.33
2023-03-27T05:32:18.521Z,3.20
2023-03-27T05:34:51.017Z,3.15
2023-03-27T05:37:20.369Z,2.53
2023-03-27T05:40:11.139Z,2.40
2023-03-27T05:42:44.300Z,2.58
2023-03-27T05:45:14.014Z,2.60
2023-03-27T05:47:47.371Z,3.10
2023-03-27T05:50:16.035Z,2.65
2023-03-27T05:52:45.370Z,3.05
2023-03-27T05:55:15.887Z,2.85
2023-03-27T05:57:44.330Z,2.88
2023-03-27T06:00:14.375Z,3.00
2023-03-27T06:02:44.936Z,3.33
2023-03-27T06:05:16.745Z,2.15
2023-03-27T06:07:50.712Z,2.80
2023-03-27T06:10:21.933Z,3.22
2023-03-27T06:13:08.912Z,2.88
2023-03-27T06:15:48.341Z,3.85
2023-03-27T06:18:23.443Z,4.53
2023-03-27T06:20:51.923Z,3.65
2023-03-27T06:23:20.297Z,5.03
2023-03-27T06:25:51.219Z,5.30
2023-03-27T06:28:23.789Z,7.13
2023-03-27T06:30:52.142Z,8.70
2023-03-27T06:33:52.792Z,7.70
2023-03-27T06:36:33.395Z,7.78
2023-03-27T06:39:06.486Z,7.45
2023-03-27T06:41:36.774Z,7.75
2023-03-27T06:44:20.713Z,6.57
2023-03-27T06:47:14.997Z,6.82
2023-03-27T06:49:51.859Z,5.72
2023-03-27T06:52:23.751Z,7.80
2023-03-27T06:54:51.952Z,6.55
2023-03-27T06:57:21.609Z,4.70
2023-03-27T06:59:51.529Z,6.05
2023-03-27T07:02:24.219Z,5.90
2023-03-27T07:05:04.233Z,5.22
2023-03-27T07:07:39.574Z,5.18
2023-03-27T07:10:11.102Z,5.25
2023-03-27T07:12:45.601Z,5.43
2023-03-27T07:15:19.020Z,5.55
2023-03-27T07:18:09.872Z,4.80
2023-03-27T07:20:54.931Z,4.68
2023-03-27T07:23:34.048Z,4.63
2023-03-27T07:26:05.297Z,5.15
2023-03-27T07:28:54.613Z,4.13
2023-03-27T07:33:55.051Z,2.95
2023-03-27T07:36:31.539Z,3.78
2023-03-27T07:39:06.895Z,3.97
2023-03-27T07:41:34.956Z,3.63
2023-03-27T07:44:22.828Z,3.30
2023-03-27T07:47:02.471Z,1.60
2023-03-27T07:49:39.286Z,1.90
2023-03-27T07:52:11.591Z,2.10
2023-03-27T07:55:00.037Z,1.85
2023-03-27T07:57:50.608Z,1.75
2023-03-27T08:00:35.890Z,1.70
2023-03-27T08:03:14.065Z,1.90
2023-03-27T08:05:55.013Z,2.00
2023-03-27T08:08:25.712Z,3.40
2023-03-27T08:10:58.986Z,1.70
2023-03-27T08:13:31.094Z,1.50
2023-03-27T08:16:11.478Z,2.03
2023-03-27T08:19:06.828Z,1.90
2023-03-27T08:21:41.050Z,2.17
2023-03-27T08:24:10.042Z,2.53
2023-03-27T08:26:58.552Z,1.92
2023-03-27T08:29:27.106Z,1.55
2023-03-27T08:32:00.152Z,1.55
2023-03-27T08:34:36.204Z,1.25
2023-03-27T08:37:04.476Z,1.35
2023-03-27T08:39:40.810Z,1.15
2023-03-27T08:42:17.788Z,1.20
2023-03-27T08:44:55.328Z,1.00
2023-03-27T08:47:42.440Z,1.00
2023-03-27T08:50:33.480Z,1.10
2023-03-27T08:53:22.616Z,1.00
2023-03-27T08:55:50.713Z,0.93
2023-03-27T08:58:24.227Z,0.80
2023-03-27T09:01:04.506Z,0.87
2023-03-27T09:03:40.825Z,0.60
2023-03-27T09:06:18.509Z,0.93
2023-03-27T09:08:54.952Z,0.80
2023-03-27T09:11:33.726Z,0.90
2023-03-27T09:14:13.877Z,0.77
2023-03-27T09:16:49.287Z,0.90
2023-03-27T09:19:42.222Z,1.00
2023-03-27T09:22:16.624Z,0.50
2023-03-27T09:25:12.693Z,0.60
2023-03-27T09:28:17.263Z,0.87
2023-03-27T09:30:51.173Z,0.60
2023-03-27T09:33:27.729Z,1.23
2023-03-27T09:35:59.401Z,0.80
2023-03-27T09:38:33.194Z,0.63
2023-03-27T09:41:07.337Z,0.97
2023-03-27T09:43:42.524Z,1.57
2023-03-27T09:46:14.057Z,3.47
2023-03-27T09:48:50.344Z,1.13
2023-03-27T09:51:42.730Z,1.10
2023-03-27T09:54:32.034Z,0.80
2023-03-27T09:57:05.828Z,0.77
2023-03-27T09:59:37.537Z,0.80
2023-03-27T10:02:19.886Z,0.73
2023-03-27T10:04:59.944Z,0.88
2023-03-27T10:07:34.517Z,1.40
2023-03-27T10:10:15.647Z,2.38
2023-03-27T10:13:04.315Z,0.93
2023-03-27T10:15:39.518Z,0.90
2023-03-27T10:18:24.518Z,1.00
2023-03-27T10:20:57.567Z,1.17
2023-03-27T10:23:29.954Z,1.10
2023-03-27T10:26:01.629Z,1.02
2023-03-27T10:28:45.441Z,1.20
2023-03-27T10:31:29.703Z,1.48
2023-03-27T10:34:04.601Z,1.88
2023-03-27T10:36:54.370Z,0.88
2023-03-27T10:39:30.028Z,1.02
2023-03-27T10:42:10.963Z,1.00
2023-03-27T10:44:46.729Z,0.90
2023-03-27T10:47:21.007Z,1.60
2023-03-27T10:49:58.443Z,1.50
2023-03-27T10:52:44.593Z,0.90
2023-03-27T10:55:35.921Z,0.93
2023-03-27T10:58:11.584Z,1.30
2023-03-27T11:00:44.483Z,0.53
2023-03-27T11:03:27.611Z,0.80
2023-03-27T11:06:04.672Z,0.70
2023-03-27T11:08:45.585Z,0.70
2023-03-27T11:11:20.769Z,0.60
2023-03-27T11:13:52.459Z,0.70
2023-03-27T11:16:26.048Z,0.63
2023-03-27T11:19:29.419Z,0.70
2023-03-27T11:22:22.802Z,1.02
2023-03-27T11:24:59.915Z,3.97
2023-03-27T11:27:33.800Z,8.68
2023-03-27T11:30:18.566Z,1.55
2023-03-27T11:33:07.031Z,0.90
2023-03-27T11:35:39.004Z,1.83
2023-03-27T11:38:47.613Z,1.37
2023-03-27T11:41:16.347Z,0.90
2023-03-27T11:43:45.987Z,1.07
2023-03-27T11:46:54.597Z,0.93
2023-03-27T11:49:49.695Z,0.80
2023-03-27T11:52:30.755Z,0.70
2023-03-27T11:55:11.736Z,1.27
2023-03-27T11:57:54.777Z,0.93
2023-03-27T12:00:36.348Z,0.63
2023-03-27T12:03:56.664Z,1.20
2023-03-27T12:06:40.756Z,1.13
2023-03-27T12:09:21.668Z,0.93
2023-03-27T12:12:26.121Z,0.73
2023-03-27T12:15:06.230Z,0.80
2023-03-27T12:17:44.203Z,3.92
2023-03-27T12:20:28.742Z,16.08
2023-03-27T12:23:26.550Z,6.20
2023-03-27T12:26:35.983Z,7.10
2023-03-27T12:29:26.211Z,2.00
2023-03-27T12:32:16.700Z,0.90
2023-03-27T12:34:56.823Z,0.80
2023-03-27T12:37:34.668Z,1.25
2023-03-27T12:40:10.404Z,0.90
2023-03-27T12:42:43.553Z,0.90
2023-03-27T12:45:19.528Z,0.70
2023-03-27T12:48:18.720Z,1.17
2023-03-27T12:50:57.248Z,2.00
2023-03-27T12:53:54.919Z,0.70
2023-03-27T12:56:36.055Z,0.95
2023-03-27T12:59:19.574Z,0.68
2023-03-27T13:02:15.867Z,2.28
2023-03-27T13:05:16.481Z,0.40
2023-03-27T13:08:10.276Z,0.60
2023-03-27T13:11:02.271Z,0.80
2023-03-27T13:14:04.882Z,0.60
2023-03-27T13:16:54.118Z,0.63
2023-03-27T13:19:48.894Z,0.40
2023-03-27T13:22:36.554Z,0.87
2023-03-27T13:25:42.257Z,0.70
2023-03-27T13:28:34.480Z,0.90
2023-03-27T13:31:14.810Z,0.90
2023-03-27T13:34:13.951Z,0.73
2023-03-27T13:36:48.784Z,1.13
2023-03-27T13:39:24.863Z,1.13
2023-03-27T13:42:07.887Z,0.60
2023-03-27T13:44:59.647Z,1.10
2023-03-27T13:48:03.466Z,0.90
2023-03-27T13:50:53.663Z,0.80
2023-03-27T13:53:44.127Z,0.80
2023-03-27T13:56:57.381Z,1.35
2023-03-27T14:00:08.497Z,1.23
2023-03-27T14:03:11.391Z,0.87
2023-03-27T14:06:07.836Z,1.07
2023-03-27T14:08:52.356Z,1.33
2023-03-27T14:12:01.727Z,0.77
2023-03-27T14:15:06.936Z,0.80
2023-03-27T14:18:04.730Z,1.38
2023-03-27T14:20:40.753Z,0.70
2023-03-27T14:23:17.212Z,0.60
2023-03-27T14:26:03.532Z,0.93
2023-03-27T14:28:46.762Z,1.00
2023-03-27T14:31:19.343Z,0.75
2023-03-27T14:34:17.205Z,1.00
2023-03-27T14:36:49.886Z,0.80
2023-03-27T14:39:31.337Z,0.73
2023-03-27T14:42:17.140Z,0.65
2023-03-27T14:44:49.386Z,0.60
2023-03-27T14:47:22.843Z,0.90
2023-03-27T14:49:53.935Z,0.50
2023-03-27T14:52:37.107Z,0.50
2023-03-27T14:55:29.846Z,0.80
2023-03-27T14:58:23.586Z,0.65
2023-03-27T15:00:58.045Z,0.70
2023-03-27T15:03:35.286Z,0.50
2023-03-27T15:06:06.733Z,0.60
2023-03-27T15:08:49.933Z,0.60
2023-03-27T15:11:37.429Z,0.80
2023-03-27T15:14:16.588Z,0.57
2023-03-27T15:16:50.020Z,0.63
2023-03-27T15:19:23.068Z,0.85
2023-03-27T15:21:58.527Z,1.30
2023-03-27T15:24:36.664Z,1.35
2023-03-27T15:27:05.656Z,0.80
2023-03-27T15:29:40.807Z,0.88
2023-03-27T15:32:11.864Z,0.80
2023-03-27T15:34:46.516Z,0.95
2023-03-27T15:37:19.818Z,0.90
2023-03-27T15:40:04.538Z,1.05
2023-03-27T15:42:49.261Z,0.88
2023-03-27T15:45:19.214Z,0.82
2023-03-27T15:47:59.749Z,1.10
2023-03-27T15:50:29.630Z,0.75
2023-03-27T15:52:58.761Z,1.05
2023-03-27T15:55:37.246Z,1.00
2023-03-27T15:58:20.346Z,1.00
2023-03-27T16:00:50.005Z,1.30
2023-03-27T16:03:22.302Z,1.17
2023-03-27T16:05:54.740Z,0.70
2023-03-27T16:08:29.134Z,0.82
2023-03-27T16:10:58.419Z,0.70
2023-03-27T16:13:29.216Z,0.70
2023-03-27T16:15:59.574Z,0.75
2023-03-27T16:18:32.935Z,0.85
2023-03-27T16:21:11.045Z,0.70
2023-03-27T16:23:39.031Z,0.80
2023-03-27T16:26:09.764Z,1.67
2023-03-27T16:28:37.757Z,1.15
2023-03-27T16:31:13.474Z,2.00
2023-03-27T16:33:42.959Z,0.70
2023-03-27T16:36:14.151Z,1.48
2023-03-27T16:38:43.533Z,1.25
2023-03-27T16:41:13.908Z,1.00
2023-03-27T16:43:42.139Z,0.77
2023-03-27T16:46:17.606Z,0.60
2023-03-27T16:48:46.047Z,0.70
2023-03-27T16:51:15.636Z,0.60
2023-03-27T16:53:43.621Z,0.65
2023-03-27T16:56:12.322Z,0.90
2023-03-27T16:58:40.991Z,1.00
2023-03-27T17:01:10.301Z,0.70
2023-03-27T17:03:38.542Z,0.60
2023-03-27T17:06:08.593Z,0.95
2023-03-27T17:08:38.290Z,0.90
2023-03-27T17:11:09.184Z,0.50
2023-03-27T17:13:39.138Z,0.30
2023-03-27T17:16:09.645Z,0.77
2023-03-27T17:18:37.801Z,0.30
2023-03-27T17:21:06.370Z,0.47
2023-03-27T17:23:34.577Z,0.77
2023-03-27T17:26:05.567Z,0.50
2023-03-27T17:28:34.050Z,0.50
2023-03-27T17:31:05.045Z,0.60
2023-03-27T17:33:34.005Z,0.68
2023-03-27T17:36:02.554Z,0.50
2023-03-27T17:38:31.012Z,0.30
2023-03-27T17:40:59.039Z,0.60
2023-03-27T17:43:28.384Z,0.73
2023-03-27T17:45:57.063Z,0.60
2023-03-27T17:48:25.498Z,0.70
2023-03-27T17:51:07.422Z,1.23
2023-03-27T17:53:37.399Z,1.00
2023-03-27T17:56:06.377Z,0.75
2023-03-27T17:58:37.130Z,1.20
2023-03-27T18:01:16.522Z,1.30
2023-03-27T18:03:45.241Z,1.33
2023-03-27T18:06:13.832Z,0.85
2023-03-27T18:12:59.750Z,1.10
2023-03-27T18:15:29.427Z,1.23
2023-03-27T18:17:58.993Z,1.05
2023-03-27T18:20:27.168Z,1.30
2023-03-27T18:22:55.309Z,1.88
2023-03-27T18:25:24.367Z,1.15
2023-03-27T18:27:52.466Z,0.63
2023-03-27T18:30:20.927Z,0.50
2023-03-27T18:32:50.738Z,0.57
2023-03-27T18:35:20.458Z,0.50
2023-03-27T18:37:48.527Z,0.40
2023-03-27T18:40:18.324Z,0.40
2023-03-27T18:42:46.552Z,0.43
2023-03-27T18:45:16.663Z,0.70
2023-03-27T18:47:45.731Z,3.83
2023-03-27T18:50:15.706Z,22.05
2023-03-27T18:52:44.003Z,3.25
2023-03-27T18:55:13.035Z,0.43
2023-03-27T18:57:41.181Z,0.77
2023-03-27T19:00:18.185Z,0.60
2023-03-27T19:02:46.282Z,2.55
2023-03-27T19:05:16.227Z,1.30
2023-03-27T19:07:45.207Z,0.60
2023-03-27T19:10:14.028Z,5.82
2023-03-27T19:12:45.834Z,5.93
2023-03-27T19:15:34.349Z,4.85
2023-03-27T19:18:22.303Z,3.67
2023-03-27T19:20:52.466Z,1.23
2023-03-27T19:23:33.036Z,2.72
2023-03-27T19:26:07.856Z,4.60
2023-03-27T19:28:37.085Z,2.15
2023-03-27T19:31:06.294Z,1.98
2023-03-27T19:33:34.486Z,4.68
2023-03-27T19:36:04.163Z,2.80
2023-03-27T19:38:32.437Z,3.50
2023-03-27T19:41:00.644Z,1.27
2023-03-27T19:43:30.471Z,1.63
2023-03-27T19:46:14.081Z,4.00
2023-03-27T19:48:44.073Z,5.53
2023-03-27T19:51:21.457Z,11.80
2023-03-27T19:53:52.364Z,9.18
2023-03-27T19:56:23.069Z,3.45
2023-03-27T19:58:52.253Z,0.98
2023-03-27T20:01:21.677Z,1.05
2023-03-27T20:03:50.004Z,1.10
2023-03-27T20:06:19.511Z,0.60
2023-03-27T20:08:49.036Z,1.00
2023-03-27T20:11:17.666Z,0.95
2023-03-27T20:13:56.206Z,1.27
2023-03-27T20:16:26.556Z,1.20
2023-03-27T20:19:04.593Z,1.48
2023-03-27T20:21:35.153Z,1.27
2023-03-27T20:24:10.114Z,1.08
2023-03-27T20:26:42.410Z,1.30
2023-03-27T20:29:18.859Z,0.90
2023-03-27T20:31:47.999Z,1.30
2023-03-27T20:34:19.156Z,1.13
2023-03-27T20:36:47.456Z,0.88
2023-03-27T20:39:44.791Z,1.20
2023-03-27T20:42:15.086Z,0.70
2023-03-27T20:44:44.265Z,0.70
2023-03-27T20:47:12.600Z,0.73
2023-03-27T20:49:44.976Z,0.70
2023-03-27T20:52:15.410Z,1.00
2023-03-27T20:54:44.962Z,0.60
2023-03-27T20:57:15.081Z,0.75
2023-03-27T20:59:44.074Z,1.05
2023-03-27T21:02:17.823Z,0.70
2023-03-27T21:04:46.630Z,0.80
2023-03-27T21:07:15.828Z,0.70
2023-03-27T21:09:47.546Z,0.77
2023-03-27T21:12:15.785Z,0.80
2023-03-27T21:14:43.908Z,0.75
2023-03-27T21:17:13.429Z,0.88
2023-03-27T21:19:41.524Z,0.70
2023-03-27T21:22:09.569Z,0.70
2023-03-27T21:24:37.771Z,0.88
2023-03-27T21:27:07.134Z,0.90
2023-03-27T21:29:35.398Z,0.88
2023-03-27T21:32:05.756Z,1.08
2023-03-27T21:34:33.815Z,1.52
2023-03-27T21:37:02.707Z,0.50
2023-03-27T21:39:30.852Z,0.63
2023-03-27T21:41:58.912Z,0.52
2023-03-27T21:44:28.331Z,0.93
2023-03-27T21:46:56.643Z,0.82
2023-03-27T21:49:25.619Z,0.60
2023-03-27T21:51:53.690Z,0.85
2023-03-27T21:54:21.800Z,0.55
2023-03-27T21:56:49.875Z,1.42
2023-03-27T21:59:18.055Z,0.82
2023-03-27T22:01:47.421Z,0.50
2023-03-27T22:04:15.640Z,0.75
2023-03-27T22:06:43.689Z,0.63
2023-03-27T22:09:11.712Z,1.10
2023-03-27T22:11:40.035Z,1.00
2023-03-27T22:14:08.104Z,0.90
2023-03-27T22:16:36.340Z,1.17
2023-03-27T22:19:05.828Z,0.90
2023-03-27T22:21:33.822Z,1.05
2023-03-27T22:24:01.996Z,0.85
2023-03-27T22:26:31.878Z,1.05
2023-03-27T22:29:01.363Z,0.80
2023-03-27T22:31:30.138Z,1.15
2023-03-27T22:33:58.405Z,0.88
2023-03-27T22:36:27.955Z,1.10
2023-03-27T22:38:55.967Z,1.05
2023-03-27T22:41:24.204Z,1.15
2023-03-27T22:43:52.433Z,0.82
2023-03-27T22:46:22.544Z,1.55
2023-03-27T22:48:55.978Z,0.50
2023-03-27T22:51:24.914Z,0.80
2023-03-27T22:53:54.276Z,0.80
2023-03-27T22:56:22.362Z,1.42
2023-03-27T22:58:50.640Z,0.57
2023-03-27T23:01:18.685Z,0.80
2023-03-27T23:03:46.884Z,0.75
2023-03-27T23:06:19.792Z,0.70
2023-03-27T23:08:49.176Z,0.90
2023-03-27T23:11:19.453Z,0.85
2023-03-27T23:13:47.875Z,1.02
2023-03-27T23:16:16.350Z,1.00
2023-03-27T23:18:44.404Z,0.80
2023-03-27T23:21:16.690Z,0.90
2023-03-27T23:23:45.558Z,1.10
2023-03-27T23:26:14.107Z,0.98
2023-03-27T23:28:43.938Z,1.00
2023-03-27T23:31:13.752Z,0.75
2023-03-27T23:33:43.552Z,1.05
2023-03-27T23:36:14.576Z,1.00
2023-03-27T23:38:43.557Z,0.80
2023-03-27T23:41:14.023Z,1.20
2023-03-27T23:43:43.788Z,0.90
2023-03-27T23:46:12.045Z,1.58
2023-03-27T23:48:42.003Z,0.90
2023-03-27T23:51:11.784Z,1.13
2023-03-27T23:53:40.127Z,1.05
2023-03-27T23:56:09.271Z,0.90
2023-03-27T23:58:37.607Z,0.93
